Time;durP1;ratioP1;P1;durP2;ratioP2;P2;SDS_P1;SDS_P2;PMS_P1;PMS_P2;Temp;Humidity;BMP_temperature;BMP_pressure;BME280_temperature;BME280_humidity;BME280_pressure;Samples;Min_cycle;Max_cycle;Signal;HPM_P1;HPM_P2
2021/10/04 00:00:30;;;;;;;27.98;22.40;;;15.20;99.90;;;;;;2075087;28;20359;-76
2021/10/04 00:01:31;;;;;;;27.38;21.55;;;15.20;99.90;;;;;;2074551;28;20498;-77
2021/10/04 00:02:31;;;;;;;26.67;20.95;;;15.20;99.90;;;;;;2074568;28;20061;-76
2021/10/04 00:03:32;;;;;;;24.65;20.23;;;15.20;99.90;;;;;;2074677;28;20033;-77
2021/10/04 00:04:33;;;;;;;24.95;20.42;;;15.20;99.90;;;;;;2065824;28;20022;-78
2021/10/04 00:05:34;;;;;;;24.42;20.27;;;15.10;99.90;;;;;;2058947;28;20034;-77
2021/10/04 00:06:34;;;;;;;25.90;20.85;;;15.20;99.90;;;;;;2074960;28;20081;-78
2021/10/04 00:07:36;;;;;;;25.45;20.25;;;15.20;99.90;;;;;;2074849;28;20113;-78
2021/10/04 00:08:36;;;;;;;25.27;20.65;;;15.10;99.90;;;;;;2074330;28;20104;-78
2021/10/04 00:09:39;;;;;;;24.50;20.05;;;15.10;99.90;;;;;;2073848;28;20029;-74
2021/10/04 00:10:40;;;;;;;26.00;20.88;;;15.10;99.90;;;;;;2063675;28;20038;-75
2021/10/04 00:11:41;;;;;;;24.70;20.38;;;15.10;99.90;;;;;;2063482;28;20026;-75
2021/10/04 00:12:42;;;;;;;25.02;19.98;;;15.10;99.90;;;;;;2071523;28;20624;-74
2021/10/04 00:13:43;;;;;;;24.52;19.67;;;15.10;99.90;;;;;;2072193;28;20037;-74
2021/10/04 00:14:44;;;;;;;24.60;19.88;;;15.10;99.90;;;;;;2072787;28;20038;-74
2021/10/04 00:15:45;;;;;;;25.42;20.52;;;15.10;99.90;;;;;;2072446;28;20025;-75
2021/10/04 00:16:46;;;;;;;25.13;20.00;;;15.10;99.90;;;;;;2064232;28;20070;-75
2021/10/04 00:17:48;;;;;;;23.35;19.17;;;15.10;99.90;;;;;;2064352;28;20104;-75
2021/10/04 00:18:48;;;;;;;25.23;19.15;;;15.00;99.90;;;;;;2072301;28;20054;-75
2021/10/04 00:19:49;;;;;;;23.45;19.27;;;15.10;99.90;;;;;;2072891;28;20026;-75
2021/10/04 00:20:50;;;;;;;22.92;19.25;;;15.10;99.90;;;;;;2071980;28;20419;-76
2021/10/04 00:21:51;;;;;;;23.38;19.17;;;15.00;99.90;;;;;;2071521;28;20515;-75
2021/10/04 00:22:51;;;;;;;22.48;18.48;;;15.00;99.90;;;;;;2072776;28;20109;-75
2021/10/04 00:23:52;;;;;;;22.98;18.90;;;15.00;99.90;;;;;;2072915;28;20049;-75
2021/10/04 00:24:53;;;;;;;27.40;21.48;;;15.00;99.90;;;;;;2072517;28;20434;-74
2021/10/04 00:25:53;;;;;;;26.55;20.85;;;15.00;99.90;;;;;;2073072;28;20045;-75
2021/10/04 00:26:54;;;;;;;26.02;19.98;;;15.00;99.90;;;;;;2072554;28;20080;-76
2021/10/04 00:27:54;;;;;;;24.02;19.80;;;15.00;99.90;;;;;;2072125;28;20065;-77
2021/10/04 00:28:55;;;;;;;26.67;20.52;;;15.00;99.90;;;;;;2072260;28;20045;-77
2021/10/04 00:29:57;;;;;;;27.25;22.13;;;15.00;99.90;;;;;;2072053;28;20073;-77
2021/10/04 00:30:57;;;;;;;33.35;23.52;;;15.00;99.90;;;;;;2071947;28;20407;-77
2021/10/04 00:31:58;;;;;;;30.58;23.65;;;15.00;99.90;;;;;;2071388;28;20026;-76
2021/10/04 00:32:59;;;;;;;28.35;22.75;;;15.00;99.90;;;;;;2072442;28;20021;-75
2021/10/04 00:34:00;;;;;;;30.58;22.15;;;15.00;99.90;;;;;;2072675;28;20061;-76
2021/10/04 00:35:02;;;;;;;27.02;21.83;;;15.10;99.90;;;;;;2072474;28;20502;-75
2021/10/04 00:36:03;;;;;;;27.35;21.80;;;15.00;99.90;;;;;;2072600;28;20030;-76
2021/10/04 00:37:03;;;;;;;29.80;21.42;;;15.10;99.90;;;;;;2072712;28;20038;-75
2021/10/04 00:38:04;;;;;;;27.80;21.45;;;15.10;99.90;;;;;;2072562;28;20080;-75
2021/10/04 00:39:05;;;;;;;25.88;20.67;;;15.10;99.90;;;;;;2072534;28;20030;-75
2021/10/04 00:40:09;;;;;;;24.73;20.25;;;15.10;99.90;;;;;;2072657;28;20061;-75
2021/10/04 00:41:09;;;;;;;26.15;20.40;;;15.10;99.90;;;;;;2072145;28;20034;-78
2021/10/04 00:42:10;;;;;;;29.15;21.73;;;15.10;99.90;;;;;;2071763;28;20022;-75
2021/10/04 00:43:10;;;;;;;24.73;20.67;;;15.00;99.90;;;;;;2071913;28;20057;-75
2021/10/04 00:44:11;;;;;;;28.58;21.70;;;15.00;99.90;;;;;;2080231;28;20037;-76
2021/10/04 00:45:12;;;;;;;26.50;21.00;;;15.10;99.90;;;;;;2080180;28;20040;-75
2021/10/04 00:46:13;;;;;;;24.58;20.30;;;15.10;99.90;;;;;;2072955;28;20026;-75
2021/10/04 00:47:14;;;;;;;25.42;20.45;;;15.10;99.90;;;;;;2072607;28;20038;-75
2021/10/04 00:48:15;;;;;;;25.58;19.92;;;15.00;99.90;;;;;;2072945;28;20039;-76
2021/10/04 00:49:16;;;;;;;29.92;22.77;;;15.00;99.90;;;;;;2072527;28;20037;-75
2021/10/04 00:50:18;;;;;;;26.63;21.52;;;15.00;99.90;;;;;;2072365;28;20030;-75
2021/10/04 00:51:20;;;;;;;27.50;21.73;;;15.00;99.90;;;;;;2072217;28;20076;-75
2021/10/04 00:52:21;;;;;;;27.55;20.45;;;15.00;99.90;;;;;;2072941;28;20033;-75
2021/10/04 00:53:22;;;;;;;27.33;20.02;;;15.00;99.90;;;;;;2072410;28;20041;-75
2021/10/04 00:54:22;;;;;;;25.10;20.48;;;15.00;99.90;;;;;;2072724;28;20038;-75
2021/10/04 00:55:23;;;;;;;24.98;20.02;;;15.00;99.90;;;;;;2072726;28;20076;-76
2021/10/04 00:56:24;;;;;;;24.10;19.23;;;15.00;99.90;;;;;;2072220;28;20029;-75
2021/10/04 00:57:24;;;;;;;23.38;19.02;;;15.00;99.90;;;;;;2072077;28;20080;-75
2021/10/04 00:58:26;;;;;;;24.92;19.60;;;15.00;99.90;;;;;;2073006;28;20064;-77
2021/10/04 00:59:27;;;;;;;24.25;18.83;;;15.00;99.90;;;;;;2072584;28;20029;-75
2021/10/04 01:00:28;;;;;;;24.38;19.38;;;15.00;99.90;;;;;;2071903;28;20026;-75
2021/10/04 01:01:30;;;;;;;27.77;21.80;;;15.00;99.90;;;;;;2063304;28;20033;-75
2021/10/04 01:02:31;;;;;;;29.35;22.80;;;15.00;99.90;;;;;;2072215;28;20056;-75
2021/10/04 01:03:32;;;;;;;28.05;21.35;;;15.00;99.90;;;;;;2072798;28;20065;-75
2021/10/04 01:04:33;;;;;;;31.73;23.73;;;15.00;99.90;;;;;;2072772;28;20076;-75
2021/10/04 01:05:33;;;;;;;30.77;23.63;;;15.00;99.90;;;;;;2072499;28;20112;-77
2021/10/04 01:06:34;;;;;;;32.80;23.95;;;15.10;99.90;;;;;;2072802;28;20034;-75
2021/10/04 01:07:35;;;;;;;33.38;24.63;;;15.10;99.90;;;;;;2072421;28;20093;-75
2021/10/04 01:08:35;;;;;;;34.40;25.38;;;15.00;99.90;;;;;;2072251;28;20034;-75
2021/10/04 01:09:37;;;;;;;33.22;25.55;;;15.00;99.90;;;;;;2072229;28;20030;-74
2021/10/04 01:10:37;;;;;;;31.58;23.50;;;15.00;99.90;;;;;;2072602;28;20062;-74
2021/10/04 01:11:38;;;;;;;30.85;24.38;;;15.00;99.90;;;;;;2072020;28;20026;-75
2021/10/04 01:12:42;;;;;;;30.58;23.83;;;15.00;99.90;;;;;;2072780;28;20113;-75
2021/10/04 01:13:43;;;;;;;30.65;22.98;;;15.00;99.90;;;;;;2072810;28;20130;-75
2021/10/04 01:14:44;;;;;;;32.50;23.08;;;15.00;99.90;;;;;;2072762;28;20032;-76
2021/10/04 01:15:44;;;;;;;30.13;22.55;;;15.00;99.90;;;;;;2072921;28;20033;-75
2021/10/04 01:16:46;;;;;;;31.00;22.58;;;15.00;99.90;;;;;;2072238;28;20042;-75
2021/10/04 01:17:47;;;;;;;27.30;21.35;;;15.00;99.90;;;;;;2071944;28;20889;-75
2021/10/04 01:18:47;;;;;;;30.33;23.00;;;15.00;99.90;;;;;;2072137;28;20037;-74
2021/10/04 01:19:48;;;;;;;34.28;24.77;;;15.00;99.90;;;;;;2072212;28;20097;-75
2021/10/04 01:20:48;;;;;;;34.60;25.20;;;15.00;99.90;;;;;;2072039;28;20084;-74
2021/10/04 01:21:49;;;;;;;28.85;22.83;;;15.00;99.90;;;;;;2070596;28;20526;-74
2021/10/04 01:22:51;;;;;;;29.77;23.35;;;15.00;99.90;;;;;;2071653;28;20136;-76
2021/10/04 01:23:52;;;;;;;29.65;23.05;;;15.00;99.90;;;;;;2072406;28;20029;-75
2021/10/04 01:24:52;;;;;;;27.38;21.83;;;15.00;99.90;;;;;;2073705;28;20032;-75
2021/10/04 01:25:53;;;;;;;26.73;21.30;;;15.00;99.90;;;;;;2074068;28;20391;-74
2021/10/04 01:26:54;;;;;;;25.60;20.52;;;15.00;99.90;;;;;;2074183;28;20029;-74
2021/10/04 01:27:54;;;;;;;25.95;20.33;;;15.00;99.90;;;;;;2074144;28;20057;-75
2021/10/04 01:28:55;;;;;;;26.10;20.42;;;15.00;99.90;;;;;;2074420;28;20049;-74
2021/10/04 01:29:56;;;;;;;28.02;20.83;;;15.00;99.90;;;;;;2073775;28;20368;-75
2021/10/04 01:30:57;;;;;;;25.90;20.70;;;15.00;99.90;;;;;;2074332;28;20435;-74
2021/10/04 01:31:58;;;;;;;24.50;19.98;;;14.90;99.90;;;;;;2073702;28;20352;-75
2021/10/04 01:32:59;;;;;;;25.25;20.38;;;14.90;99.90;;;;;;2073712;28;20026;-75
2021/10/04 01:34:00;;;;;;;23.60;19.45;;;14.90;99.90;;;;;;2073815;28;20471;-75
2021/10/04 01:35:00;;;;;;;24.85;19.58;;;14.90;99.90;;;;;;2073228;28;20034;-74
2021/10/04 01:36:01;;;;;;;25.10;19.92;;;14.90;99.90;;;;;;2073431;28;20029;-75
2021/10/04 01:37:02;;;;;;;32.03;23.17;;;14.90;99.90;;;;;;2073506;28;20030;-75
2021/10/04 01:38:03;;;;;;;31.25;23.45;;;14.90;99.90;;;;;;2073669;28;20163;-76
2021/10/04 01:39:04;;;;;;;27.70;22.10;;;14.90;99.90;;;;;;2074170;28;20030;-75
2021/10/04 01:40:06;;;;;;;29.33;22.55;;;14.90;99.90;;;;;;2074274;28;20057;-76
2021/10/04 01:41:07;;;;;;;28.10;22.35;;;14.90;99.90;;;;;;2073094;28;20441;-75
2021/10/04 01:42:08;;;;;;;25.92;20.67;;;14.90;99.90;;;;;;2073069;28;20546;-75
2021/10/04 01:43:09;;;;;;;26.88;21.45;;;14.90;99.90;;;;;;2073800;28;20040;-75
2021/10/04 01:44:09;;;;;;;25.85;20.35;;;14.80;99.90;;;;;;2072845;28;20045;-75
2021/10/04 01:45:14;;;;;;;25.88;20.23;;;14.80;99.90;;;;;;2072709;28;20018;-75
2021/10/04 01:46:15;;;;;;;25.25;20.45;;;14.80;99.90;;;;;;2074007;28;20034;-75
2021/10/04 01:47:16;;;;;;;24.25;19.70;;;14.80;99.90;;;;;;2073543;28;20026;-76
2021/10/04 01:48:16;;;;;;;22.58;18.70;;;14.80;99.90;;;;;;2073665;28;20065;-74
2021/10/04 01:49:17;;;;;;;23.75;19.25;;;14.80;99.90;;;;;;2072993;28;20076;-75
2021/10/04 01:50:19;;;;;;;24.80;20.10;;;14.80;99.90;;;;;;2064988;28;20502;-75
2021/10/04 01:51:20;;;;;;;24.48;19.35;;;14.80;99.90;;;;;;2064368;28;20064;-75
2021/10/04 01:52:21;;;;;;;26.42;21.10;;;14.80;99.90;;;;;;2073294;28;20030;-74
2021/10/04 01:53:22;;;;;;;26.40;21.20;;;14.70;99.90;;;;;;2072849;28;20042;-75
2021/10/04 01:54:22;;;;;;;29.05;22.27;;;14.70;99.90;;;;;;2072691;28;20037;-77
2021/10/04 01:55:23;;;;;;;27.67;21.98;;;14.70;99.90;;;;;;2073187;28;20030;-77
2021/10/04 01:56:24;;;;;;;27.40;21.75;;;14.70;99.90;;;;;;2073197;28;20075;-76
2021/10/04 01:57:24;;;;;;;27.05;21.88;;;14.70;99.90;;;;;;2072782;28;20426;-77
2021/10/04 01:58:25;;;;;;;32.08;23.23;;;14.70;99.90;;;;;;2072946;28;20033;-77
2021/10/04 01:59:26;;;;;;;34.42;24.67;;;14.70;99.90;;;;;;2072624;28;20060;-77
2021/10/04 02:00:26;;;;;;;32.70;24.40;;;14.60;99.90;;;;;;2072690;28;20041;-77
2021/10/04 02:01:27;;;;;;;32.97;24.15;;;14.60;99.90;;;;;;2072468;28;20045;-77
2021/10/04 02:02:29;;;;;;;29.88;23.48;;;14.60;99.90;;;;;;2073162;28;20044;-77
2021/10/04 02:03:30;;;;;;;27.08;21.65;;;14.60;99.90;;;;;;2072538;28;20506;-77
2021/10/04 02:04:30;;;;;;;29.73;23.02;;;14.60;99.90;;;;;;2072650;28;20037;-77
2021/10/04 02:05:33;;;;;;;27.38;21.73;;;14.60;99.90;;;;;;2073346;28;20030;-77
2021/10/04 02:06:33;;;;;;;28.15;21.83;;;14.60;99.90;;;;;;2073462;28;20038;-77
2021/10/04 02:07:36;;;;;;;25.98;20.88;;;14.60;99.90;;;;;;2073496;28;20018;-77
2021/10/04 02:08:37;;;;;;;26.48;21.02;;;14.60;99.90;;;;;;2073487;28;20026;-76
2021/10/04 02:09:38;;;;;;;26.67;20.83;;;14.60;99.90;;;;;;2072551;28;20053;-77
2021/10/04 02:10:41;;;;;;;25.25;20.02;;;14.60;99.90;;;;;;2072640;28;20022;-77
2021/10/04 02:11:41;;;;;;;25.48;20.10;;;14.60;99.90;;;;;;2072649;28;20033;-77
2021/10/04 02:12:42;;;;;;;26.13;20.10;;;14.60;99.90;;;;;;2072457;28;20430;-76
2021/10/04 02:13:43;;;;;;;24.02;19.30;;;14.60;99.90;;;;;;2072751;28;20033;-77
2021/10/04 02:14:43;;;;;;;26.00;19.88;;;14.60;99.90;;;;;;2073128;28;20032;-77
2021/10/04 02:15:44;;;;;;;25.92;20.90;;;14.60;99.90;;;;;;2073032;28;20492;-76
2021/10/04 02:16:45;;;;;;;27.23;20.65;;;14.60;99.90;;;;;;2072854;28;20025;-77
2021/10/04 02:17:45;;;;;;;28.30;19.88;;;14.60;99.90;;;;;;2073054;28;20057;-77
2021/10/04 02:18:46;;;;;;;24.40;19.77;;;14.60;99.90;;;;;;2073076;28;20025;-77
2021/10/04 02:19:47;;;;;;;28.77;23.00;;;14.60;99.90;;;;;;2073044;28;20469;-77
2021/10/04 02:20:47;;;;;;;28.98;22.90;;;14.60;99.90;;;;;;2072897;28;20026;-77
2021/10/04 02:21:48;;;;;;;29.60;22.73;;;14.60;99.90;;;;;;2072502;28;20033;-77
2021/10/04 02:22:49;;;;;;;27.35;21.65;;;14.60;99.90;;;;;;2072300;28;20037;-77
2021/10/04 02:23:50;;;;;;;24.63;20.40;;;14.60;99.90;;;;;;2072282;28;20033;-77
2021/10/04 02:24:51;;;;;;;26.20;20.40;;;14.50;99.90;;;;;;2072885;28;20459;-77
2021/10/04 02:25:53;;;;;;;25.92;20.35;;;14.50;99.90;;;;;;2073237;28;20398;-77
2021/10/04 02:26:53;;;;;;;24.90;19.65;;;14.50;99.90;;;;;;2072334;28;20022;-77
2021/10/04 02:27:54;;;;;;;25.88;20.92;;;14.50;99.90;;;;;;2072366;28;20112;-77
2021/10/04 02:28:54;;;;;;;25.52;20.40;;;14.50;99.90;;;;;;2073216;28;20100;-77
2021/10/04 02:29:55;;;;;;;24.23;19.73;;;14.50;99.90;;;;;;2072765;28;20026;-77
2021/10/04 02:30:56;;;;;;;24.88;20.42;;;14.50;99.90;;;;;;2072764;28;20116;-77
2021/10/04 02:31:57;;;;;;;24.42;20.50;;;14.50;99.90;;;;;;2072220;28;20029;-77
2021/10/04 02:32:58;;;;;;;25.30;19.90;;;14.50;99.90;;;;;;2073181;28;20053;-77
2021/10/04 02:33:59;;;;;;;24.48;19.33;;;14.40;99.90;;;;;;2072848;28;20093;-78
2021/10/04 02:35:00;;;;;;;24.55;19.60;;;14.40;99.90;;;;;;2072366;28;20100;-77
2021/10/04 02:36:00;;;;;;;24.83;19.60;;;14.40;99.90;;;;;;2071640;28;20100;-77
2021/10/04 02:37:01;;;;;;;26.38;21.50;;;14.40;99.90;;;;;;2072767;28;20030;-77
2021/10/04 02:38:03;;;;;;;27.67;22.08;;;14.40;99.90;;;;;;2073955;28;20467;-77
2021/10/04 02:39:03;;;;;;;31.58;22.58;;;14.40;99.90;;;;;;2074168;28;20033;-77
2021/10/04 02:40:06;;;;;;;31.65;23.45;;;14.40;99.90;;;;;;2074668;28;20065;-77
2021/10/04 02:41:07;;;;;;;28.20;22.08;;;14.40;99.90;;;;;;2073828;28;20153;-77
2021/10/04 02:42:08;;;;;;;28.27;21.73;;;14.40;99.90;;;;;;2073604;28;20463;-77
2021/10/04 02:43:09;;;;;;;27.63;21.52;;;14.40;99.90;;;;;;2074590;28;20026;-77
2021/10/04 02:44:09;;;;;;;27.90;21.13;;;14.40;99.90;;;;;;2073598;28;20032;-77
2021/10/04 02:45:13;;;;;;;27.40;21.38;;;14.30;99.90;;;;;;2074429;28;20034;-77
2021/10/04 02:46:14;;;;;;;26.75;21.10;;;14.30;99.90;;;;;;2075246;28;20033;-76
2021/10/04 02:47:15;;;;;;;26.17;21.27;;;14.30;99.90;;;;;;2074054;28;20085;-76
2021/10/04 02:48:16;;;;;;;26.52;21.33;;;14.30;99.90;;;;;;2073366;28;20570;-76
2021/10/04 02:49:17;;;;;;;25.08;19.92;;;14.30;99.90;;;;;;2072740;28;20133;-76
2021/10/04 02:50:20;;;;;;;26.27;20.95;;;14.20;99.90;;;;;;2072595;28;20033;-76
2021/10/04 02:51:21;;;;;;;28.27;20.92;;;14.20;99.90;;;;;;2072751;28;20040;-76
2021/10/04 02:52:22;;;;;;;25.98;21.05;;;14.20;99.90;;;;;;2073091;28;20421;-76
2021/10/04 02:53:22;;;;;;;24.67;20.15;;;14.20;99.90;;;;;;2073130;28;20030;-76
2021/10/04 02:54:23;;;;;;;27.48;21.00;;;14.20;99.90;;;;;;2072431;28;20626;-76
2021/10/04 02:55:24;;;;;;;26.13;20.70;;;14.10;99.90;;;;;;2072370;28;20048;-76
2021/10/04 02:56:25;;;;;;;24.10;19.92;;;14.10;99.90;;;;;;2080461;28;20064;-76
2021/10/04 02:57:25;;;;;;;26.40;20.73;;;14.10;99.90;;;;;;2073015;28;20113;-76
2021/10/04 02:58:26;;;;;;;25.25;20.58;;;14.10;99.90;;;;;;2072204;28;20089;-76
2021/10/04 02:59:27;;;;;;;25.20;20.40;;;14.10;99.90;;;;;;2071926;28;20036;-75
2021/10/04 03:00:27;;;;;;;27.02;20.85;;;14.10;99.90;;;;;;2072790;28;20438;-75
2021/10/04 03:01:28;;;;;;;26.45;21.13;;;14.00;99.90;;;;;;2071780;28;20040;-75
2021/10/04 03:02:29;;;;;;;26.33;21.08;;;14.10;99.90;;;;;;2072265;28;20764;-76
2021/10/04 03:03:29;;;;;;;27.95;21.27;;;14.00;99.90;;;;;;2064091;28;20026;-75
2021/10/04 03:04:30;;;;;;;25.50;21.00;;;14.00;99.90;;;;;;2071950;28;20026;-76
2021/10/04 03:05:31;;;;;;;26.77;20.48;;;14.00;99.90;;;;;;2072109;28;20061;-76
2021/10/04 03:06:32;;;;;;;25.63;20.45;;;14.00;99.90;;;;;;2072090;28;20030;-76
2021/10/04 03:07:32;;;;;;;26.77;20.50;;;14.00;99.90;;;;;;2072707;28;20034;-76
2021/10/04 03:08:33;;;;;;;26.40;20.33;;;14.00;99.90;;;;;;2072224;28;20131;-75
2021/10/04 03:09:33;;;;;;;26.63;21.00;;;14.00;99.90;;;;;;2071988;28;20030;-76
2021/10/04 03:10:36;;;;;;;24.38;20.42;;;14.00;99.90;;;;;;2072063;28;20079;-76
2021/10/04 03:11:36;;;;;;;26.77;20.85;;;14.00;99.90;;;;;;2071452;28;20471;-76
2021/10/04 03:12:37;;;;;;;25.52;20.30;;;14.00;99.90;;;;;;2072482;28;20042;-76
2021/10/04 03:13:38;;;;;;;24.90;20.75;;;14.00;99.90;;;;;;2072507;28;20037;-76
2021/10/04 03:14:38;;;;;;;28.00;21.38;;;14.00;99.90;;;;;;2071852;28;20030;-76
2021/10/04 03:15:39;;;;;;;25.65;20.42;;;14.10;99.90;;;;;;2072036;28;20036;-75
2021/10/04 03:16:40;;;;;;;26.65;21.50;;;14.00;99.90;;;;;;2071953;28;20033;-76
2021/10/04 03:17:40;;;;;;;27.05;21.48;;;14.00;99.90;;;;;;2072709;28;20050;-76
2021/10/04 03:18:41;;;;;;;25.65;20.55;;;14.10;99.90;;;;;;2072657;28;20030;-76
2021/10/04 03:19:43;;;;;;;25.42;20.50;;;14.10;99.90;;;;;;2072464;28;20034;-77
2021/10/04 03:20:43;;;;;;;26.42;20.48;;;14.10;99.90;;;;;;2073353;28;20026;-74
2021/10/04 03:21:44;;;;;;;27.30;21.70;;;14.10;99.90;;;;;;2071746;28;20523;-74
2021/10/04 03:22:45;;;;;;;27.60;21.33;;;14.10;99.90;;;;;;2072846;28;20065;-73
2021/10/04 03:23:45;;;;;;;27.23;21.30;;;14.10;99.90;;;;;;2073092;28;20026;-74
2021/10/04 03:24:46;;;;;;;27.98;21.77;;;14.10;99.90;;;;;;2072293;28;20491;-75
2021/10/04 03:25:46;;;;;;;26.48;21.13;;;14.10;99.90;;;;;;2072692;28;20570;-74
2021/10/04 03:26:47;;;;;;;28.25;21.67;;;14.20;99.90;;;;;;2072990;28;20451;-75
2021/10/04 03:27:48;;;;;;;27.02;21.17;;;14.20;99.90;;;;;;2073215;28;20030;-75
2021/10/04 03:28:49;;;;;;;25.88;20.95;;;14.20;99.90;;;;;;2073238;28;20029;-74
2021/10/04 03:29:49;;;;;;;28.02;22.08;;;14.20;99.90;;;;;;2073235;28;20016;-74
2021/10/04 03:30:50;;;;;;;26.00;20.92;;;14.20;99.90;;;;;;2072995;28;20430;-75
2021/10/04 03:31:51;;;;;;;27.50;21.58;;;14.20;99.90;;;;;;2072773;28;20014;-74
2021/10/04 03:32:52;;;;;;;26.60;21.35;;;14.20;99.90;;;;;;2073369;28;20248;-74
2021/10/04 03:33:52;;;;;;;25.48;20.92;;;14.20;99.90;;;;;;2073064;28;20128;-75
2021/10/04 03:34:53;;;;;;;25.73;20.83;;;14.10;99.90;;;;;;2072655;28;20017;-74
2021/10/04 03:35:54;;;;;;;26.92;20.85;;;14.20;99.90;;;;;;2073128;28;20530;-74
2021/10/04 03:36:56;;;;;;;25.20;20.63;;;14.20;99.90;;;;;;2073033;28;20061;-74
2021/10/04 03:37:57;;;;;;;28.33;21.35;;;14.20;99.90;;;;;;2073059;28;20029;-75
2021/10/04 03:38:58;;;;;;;27.08;21.20;;;14.20;99.90;;;;;;2073439;28;20021;-75
2021/10/04 03:39:58;;;;;;;25.58;20.67;;;14.20;99.90;;;;;;2072337;28;20021;-74
2021/10/04 03:40:59;;;;;;;27.35;20.90;;;14.20;99.90;;;;;;2072131;28;20030;-74
2021/10/04 03:42:00;;;;;;;27.50;21.30;;;14.20;99.90;;;;;;2072328;28;20030;-74
2021/10/04 03:43:00;;;;;;;26.17;20.70;;;14.20;99.90;;;;;;2072895;28;20026;-74
2021/10/04 03:44:01;;;;;;;26.58;20.92;;;14.20;99.90;;;;;;2072558;28;20080;-74
2021/10/04 03:45:03;;;;;;;25.75;20.33;;;14.20;99.90;;;;;;2064619;28;20392;-73
2021/10/04 03:46:04;;;;;;;25.38;20.42;;;14.20;99.90;;;;;;2072628;28;20034;-74
2021/10/04 03:47:04;;;;;;;26.10;21.10;;;14.20;99.90;;;;;;2072404;28;20056;-74
2021/10/04 03:48:05;;;;;;;27.80;22.23;;;14.20;99.90;;;;;;2072369;28;20502;-74
2021/10/04 03:49:06;;;;;;;28.25;22.40;;;14.20;99.90;;;;;;2072795;28;20026;-74
2021/10/04 03:50:08;;;;;;;28.05;22.42;;;14.20;99.90;;;;;;2072813;28;20030;-74
2021/10/04 03:51:09;;;;;;;29.27;22.50;;;14.20;99.90;;;;;;2073201;28;20689;-75
2021/10/04 03:52:09;;;;;;;28.60;22.13;;;14.20;99.90;;;;;;2073155;28;20048;-74
2021/10/04 03:53:10;;;;;;;27.48;21.30;;;14.20;99.90;;;;;;2073310;28;20041;-74
2021/10/04 03:54:11;;;;;;;27.13;21.52;;;14.20;99.90;;;;;;2072738;28;20114;-75
2021/10/04 03:55:13;;;;;;;27.85;21.70;;;14.20;99.90;;;;;;2072240;28;20034;-75
2021/10/04 03:56:14;;;;;;;26.90;21.67;;;14.20;99.90;;;;;;2073058;28;20117;-74
2021/10/04 03:57:15;;;;;;;27.85;22.05;;;14.20;99.90;;;;;;2072872;28;20033;-75
2021/10/04 03:58:16;;;;;;;25.42;20.65;;;14.20;99.90;;;;;;2072300;28;20038;-74
2021/10/04 03:59:17;;;;;;;26.90;22.33;;;14.20;99.90;;;;;;2072489;28;20026;-74
2021/10/04 04:00:21;;;;;;;27.65;21.52;;;14.20;99.90;;;;;;2073024;28;20057;-75
2021/10/04 04:01:21;;;;;;;26.17;20.95;;;14.20;99.90;;;;;;2072246;28;20044;-75
2021/10/04 04:02:22;;;;;;;25.70;21.23;;;14.20;99.90;;;;;;2072385;28;20033;-75
2021/10/04 04:03:23;;;;;;;28.05;21.98;;;14.20;99.90;;;;;;2072034;28;20076;-75
2021/10/04 04:04:25;;;;;;;27.20;21.70;;;14.20;99.90;;;;;;2072683;28;20399;-75
2021/10/04 04:05:26;;;;;;;25.80;20.83;;;14.20;99.90;;;;;;2072181;28;20022;-75
2021/10/04 04:06:27;;;;;;;27.40;20.98;;;14.20;99.90;;;;;;2072478;28;20080;-74
2021/10/04 04:07:27;;;;;;;28.90;22.08;;;14.20;99.90;;;;;;2072830;28;20152;-75
2021/10/04 04:08:29;;;;;;;28.45;22.40;;;14.20;99.90;;;;;;2072516;28;20026;-75
2021/10/04 04:09:30;;;;;;;30.25;23.08;;;14.20;99.90;;;;;;2072159;28;20026;-74
2021/10/04 04:10:30;;;;;;;34.17;24.90;;;14.20;99.90;;;;;;2072641;28;20555;-75
2021/10/04 04:11:31;;;;;;;36.65;26.08;;;14.20;99.90;;;;;;2072125;28;20041;-75
2021/10/04 04:12:32;;;;;;;38.25;26.88;;;14.20;99.90;;;;;;2073010;28;20034;-77
2021/10/04 04:13:33;;;;;;;34.17;26.33;;;14.20;99.90;;;;;;2073617;28;20076;-77
2021/10/04 04:14:34;;;;;;;33.35;24.75;;;14.20;99.90;;;;;;2073509;28;20119;-77
2021/10/04 04:15:34;;;;;;;32.42;25.00;;;14.20;99.90;;;;;;2072887;28;20030;-77
2021/10/04 04:16:35;;;;;;;31.70;24.02;;;14.20;99.90;;;;;;2073548;28;20030;-78
2021/10/04 04:17:36;;;;;;;36.67;26.17;;;14.20;99.90;;;;;;2073556;28;20069;-77
2021/10/04 04:18:37;;;;;;;33.00;25.10;;;14.20;99.90;;;;;;2073410;28;20034;-78
2021/10/04 04:19:37;;;;;;;34.58;25.23;;;14.30;99.90;;;;;;2073366;28;20080;-77
2021/10/04 04:20:38;;;;;;;30.27;24.13;;;14.20;99.90;;;;;;2064860;28;20042;-78
2021/10/04 04:21:40;;;;;;;32.90;25.42;;;14.30;99.90;;;;;;2072872;28;20109;-77
2021/10/04 04:22:41;;;;;;;30.83;23.95;;;14.30;99.90;;;;;;2073651;28;20030;-77
2021/10/04 04:23:42;;;;;;;31.52;24.05;;;14.20;99.90;;;;;;2073559;28;20109;-76
2021/10/04 04:24:43;;;;;;;30.50;23.52;;;14.30;99.90;;;;;;2073931;28;20406;-77
2021/10/04 04:25:44;;;;;;;27.88;21.42;;;14.20;99.90;;;;;;2073458;28;20034;-77
2021/10/04 04:26:45;;;;;;;29.38;22.48;;;14.20;99.90;;;;;;2074030;28;20022;-77
2021/10/04 04:27:46;;;;;;;30.38;23.27;;;14.20;99.90;;;;;;2074666;28;20056;-77
2021/10/04 04:28:46;;;;;;;30.80;23.75;;;14.20;99.90;;;;;;2074177;28;20022;-76
2021/10/04 04:29:47;;;;;;;36.92;25.67;;;14.20;99.90;;;;;;2073835;28;20517;-76
2021/10/04 04:30:48;;;;;;;32.47;24.45;;;14.20;99.90;;;;;;2073666;28;20395;-76
2021/10/04 04:31:50;;;;;;;34.10;26.42;;;14.20;99.90;;;;;;2073898;28;20037;-76
2021/10/04 04:32:51;;;;;;;34.15;25.42;;;14.20;99.90;;;;;;2073935;28;20022;-75
2021/10/04 04:33:52;;;;;;;32.90;24.80;;;14.20;99.90;;;;;;2072897;28;20030;-76
2021/10/04 04:34:53;;;;;;;30.52;23.85;;;14.20;99.90;;;;;;2072625;28;20022;-76
2021/10/04 04:35:53;;;;;;;30.27;23.70;;;14.20;99.90;;;;;;2073696;28;20501;-76
2021/10/04 04:36:54;;;;;;;29.67;23.77;;;14.20;99.90;;;;;;2073774;28;20044;-77
2021/10/04 04:37:55;;;;;;;31.25;23.98;;;14.20;99.90;;;;;;2073132;28;20029;-76
2021/10/04 04:38:55;;;;;;;30.50;23.90;;;14.20;99.90;;;;;;2073117;28;20092;-76
2021/10/04 04:39:56;;;;;;;30.10;23.58;;;14.20;99.90;;;;;;2073781;28;20029;-78
2021/10/04 04:40:56;;;;;;;30.92;24.27;;;14.20;99.90;;;;;;2073222;28;20026;-77
2021/10/04 04:41:57;;;;;;;31.67;24.13;;;14.20;99.90;;;;;;2073281;28;20029;-76
2021/10/04 04:42:58;;;;;;;32.58;24.00;;;14.20;99.90;;;;;;2073523;28;20053;-76
2021/10/04 04:43:58;;;;;;;29.60;23.27;;;14.20;99.90;;;;;;2073428;28;20022;-76
2021/10/04 04:44:59;;;;;;;30.38;22.60;;;14.20;99.90;;;;;;2073476;28;20475;-76
2021/10/04 04:45:59;;;;;;;28.38;22.33;;;14.20;99.90;;;;;;2073874;28;20022;-77
2021/10/04 04:47:00;;;;;;;28.05;22.65;;;14.20;99.90;;;;;;2072605;28;20046;-76
2021/10/04 04:48:00;;;;;;;27.48;21.98;;;14.20;99.90;;;;;;2072793;28;20388;-76
2021/10/04 04:49:01;;;;;;;28.83;22.20;;;14.20;99.90;;;;;;2073744;28;20026;-77
2021/10/04 04:50:04;;;;;;;28.02;22.00;;;14.20;99.90;;;;;;2072814;28;20034;-76
2021/10/04 04:51:04;;;;;;;28.63;22.13;;;14.20;99.90;;;;;;2065672;28;20030;-76
2021/10/04 04:52:05;;;;;;;28.02;22.33;;;14.20;99.90;;;;;;2075069;28;20025;-78
2021/10/04 04:53:06;;;;;;;26.55;21.17;;;14.20;99.90;;;;;;2076267;28;20033;-77
2021/10/04 04:54:07;;;;;;;27.00;21.45;;;14.20;99.90;;;;;;2074974;28;20054;-78
2021/10/04 04:55:08;;;;;;;26.25;20.83;;;14.20;99.90;;;;;;2075609;28;20118;-77
2021/10/04 04:56:09;;;;;;;27.98;22.30;;;14.20;99.90;;;;;;2074234;28;20034;-76
2021/10/04 04:57:09;;;;;;;27.13;21.00;;;14.20;99.90;;;;;;2073629;28;20022;-75
2021/10/04 04:58:10;;;;;;;26.23;20.67;;;14.20;99.90;;;;;;2072747;28;20034;-76
2021/10/04 04:59:10;;;;;;;27.02;21.63;;;14.20;99.90;;;;;;2073329;28;20119;-76
2021/10/04 05:00:13;;;;;;;26.15;20.83;;;14.20;99.90;;;;;;2074526;28;20022;-76
2021/10/04 05:01:14;;;;;;;26.27;20.88;;;14.20;99.90;;;;;;2074269;28;20487;-77
2021/10/04 05:02:15;;;;;;;28.98;22.13;;;14.20;99.90;;;;;;2066328;28;20037;-76
2021/10/04 05:03:18;;;;;;;30.27;21.95;;;14.20;99.90;;;;;;2074265;28;20022;-76
2021/10/04 05:04:18;;;;;;;26.88;21.33;;;14.20;99.90;;;;;;2074456;28;20042;-76
2021/10/04 05:05:19;;;;;;;28.42;22.25;;;14.20;99.90;;;;;;2075844;28;20105;-77
2021/10/04 05:06:20;;;;;;;27.50;21.80;;;14.20;99.90;;;;;;2078504;28;20030;-76
2021/10/04 05:07:20;;;;;;;29.70;22.92;;;14.20;99.90;;;;;;2078323;28;20059;-76
2021/10/04 05:08:21;;;;;;;30.08;23.13;;;14.20;99.90;;;;;;2077750;28;20517;-76
2021/10/04 05:09:22;;;;;;;29.80;22.80;;;14.20;99.90;;;;;;2074313;28;20107;-76